createdAt,value
2023-03-26T00:01:46.666Z,94453.34
2023-03-26T00:04:21.959Z,94452.63
2023-03-26T00:06:50.285Z,94458.66
2023-03-26T00:09:19.220Z,94462.41
2023-03-26T00:11:47.312Z,94462.97
2023-03-26T00:14:17.571Z,94454.88
2023-03-26T00:16:45.662Z,94456.41
2023-03-26T00:19:13.905Z,94454.97
2023-03-26T00:21:43.199Z,94453.00
2023-03-26T00:24:14.888Z,94444.75
2023-03-26T00:26:43.094Z,94447.22
2023-03-26T00:29:13.719Z,94443.34
2023-03-26T00:31:46.436Z,94446.75
2023-03-26T00:34:15.716Z,94441.22
2023-03-26T00:36:46.893Z,94440.41
2023-03-26T00:39:15.294Z,94441.69
2023-03-26T00:41:43.685Z,94449.47
2023-03-26T00:44:11.966Z,94451.59
2023-03-26T00:46:39.746Z,94459.00
2023-03-26T00:49:10.999Z,94450.25
2023-03-26T00:51:39.394Z,94457.78
2023-03-26T00:54:09.263Z,94449.09
2023-03-26T00:56:36.999Z,94449.91
2023-03-26T00:59:05.092Z,94450.38
2023-03-26T01:01:32.755Z,94449.56
2023-03-26T01:04:24.121Z,94447.44
2023-03-26T01:06:52.125Z,94444.72
2023-03-26T01:09:23.390Z,94440.88
2023-03-26T01:11:51.313Z,94441.91
2023-03-26T01:14:21.572Z,94441.31
2023-03-26T01:16:51.988Z,94443.44
2023-03-26T01:19:23.344Z,94440.63
2023-03-26T01:21:51.077Z,94431.66
2023-03-26T01:24:20.116Z,94433.56
2023-03-26T01:27:01.661Z,94430.28
2023-03-26T01:29:33.874Z,94423.19
2023-03-26T01:32:09.862Z,94423.66
2023-03-26T01:34:49.695Z,94416.00
2023-03-26T01:37:23.158Z,94415.31
2023-03-26T01:39:56.970Z,94429.41
2023-03-26T01:42:30.328Z,94419.91
2023-03-26T01:45:01.124Z,94415.31
2023-03-26T01:47:28.949Z,94408.28
2023-03-26T01:49:56.712Z,94404.16
2023-03-26T01:52:26.149Z,94397.94
2023-03-26T01:54:55.680Z,94401.91
2023-03-26T01:57:34.372Z,94408.41
2023-03-26T02:00:18.089Z,94407.91
2023-03-26T02:02:56.634Z,94396.88
2023-03-26T02:05:27.237Z,94392.66
2023-03-26T02:07:58.918Z,94388.66
2023-03-26T02:10:29.555Z,94384.66
2023-03-26T02:12:57.910Z,94370.91
2023-03-26T02:15:25.956Z,94373.63
2023-03-26T02:17:53.666Z,94372.09
2023-03-26T02:20:22.365Z,94374.78
2023-03-26T02:22:50.006Z,94361.88
2023-03-26T02:25:19.232Z,94367.63
2023-03-26T02:27:49.170Z,94364.94
2023-03-26T02:30:18.337Z,94369.25
2023-03-26T02:32:45.974Z,94362.00
2023-03-26T02:35:13.939Z,94360.69
2023-03-26T02:37:42.084Z,94352.09
2023-03-26T02:40:11.784Z,94349.63
2023-03-26T02:42:39.628Z,94358.09
2023-03-26T02:45:09.315Z,94350.81
2023-03-26T02:47:36.947Z,94346.00
2023-03-26T02:50:04.852Z,94347.63
2023-03-26T02:52:33.694Z,94338.47
2023-03-26T02:55:01.424Z,94333.63
2023-03-26T02:57:29.206Z,94329.88
2023-03-26T02:59:56.821Z,94316.94
2023-03-26T03:02:25.938Z,94313.75
2023-03-26T03:05:01.313Z,94319.16
2023-03-26T03:07:29.292Z,94312.72
2023-03-26T03:10:02.282Z,94307.88
2023-03-26T03:12:29.949Z,94296.59
2023-03-26T03:14:57.582Z,94294.22
2023-03-26T03:17:26.701Z,94286.69
2023-03-26T03:19:54.408Z,94286.44
2023-03-26T03:22:22.295Z,94285.63
2023-03-26T03:24:51.904Z,94284.22
2023-03-26T03:27:23.759Z,94282.56
2023-03-26T03:29:53.681Z,94283.75
2023-03-26T03:32:22.529Z,94277.84
2023-03-26T03:34:51.947Z,94280.81
2023-03-26T03:37:19.790Z,94277.63
2023-03-26T03:39:47.515Z,94274.31
2023-03-26T03:42:15.141Z,94274.91
2023-03-26T03:44:42.833Z,94276.31
2023-03-26T03:47:13.590Z,94270.66
2023-03-26T03:49:41.255Z,94265.00
2023-03-26T03:52:10.207Z,94266.41
2023-03-26T03:54:37.853Z,94260.16
2023-03-26T03:57:05.652Z,94252.28
2023-03-26T03:59:33.345Z,94246.06
2023-03-26T04:02:01.017Z,94237.72
2023-03-26T04:04:28.765Z,94233.09
2023-03-26T04:06:56.405Z,94232.28
2023-03-26T04:09:25.485Z,94236.41
2023-03-26T04:11:53.104Z,94240.75
2023-03-26T04:14:20.775Z,94235.34
2023-03-26T04:16:49.252Z,94229.13
2023-03-26T04:19:17.301Z,94228.88
2023-03-26T04:21:44.932Z,94233.44
2023-03-26T04:24:12.808Z,94238.03
2023-03-26T04:26:42.075Z,94228.88
2023-03-26T04:29:12.822Z,94212.63
2023-03-26T04:31:40.542Z,94219.66
2023-03-26T04:34:13.555Z,94211.31
2023-03-26T04:36:42.336Z,94208.03
2023-03-26T04:39:12.162Z,94211.31
2023-03-26T04:41:42.343Z,94207.81
2023-03-26T04:44:10.037Z,94204.03
2023-03-26T04:46:37.749Z,94206.75
2023-03-26T04:49:05.521Z,94198.03
2023-03-26T04:51:38.630Z,94194.28
2023-03-26T04:54:08.063Z,94195.31
2023-03-26T04:56:44.185Z,94185.00
2023-03-26T04:59:14.891Z,94184.88
2023-03-26T05:01:46.016Z,94176.19
2023-03-26T05:04:14.252Z,94176.69
2023-03-26T05:06:42.889Z,94176.09
2023-03-26T05:09:11.166Z,94175.06
2023-03-26T05:11:38.839Z,94169.88
2023-03-26T05:14:07.884Z,94178.81
2023-03-26T05:16:36.147Z,94170.13
2023-03-26T05:19:03.915Z,94178.25
2023-03-26T05:21:31.609Z,94162.81
2023-03-26T05:23:59.422Z,94162.56
2023-03-26T05:26:27.193Z,94171.28
2023-03-26T05:28:54.850Z,94172.09
2023-03-26T05:31:23.869Z,94161.84
2023-03-26T05:33:52.011Z,94161.63
2023-03-26T05:36:19.936Z,94153.25
2023-03-26T05:38:49.535Z,94133.00
2023-03-26T05:41:18.154Z,94130.91
2023-03-26T05:43:47.204Z,94134.16
2023-03-26T05:46:15.068Z,94125.22
2023-03-26T05:48:44.104Z,94118.41
2023-03-26T05:51:12.377Z,94117.38
2023-03-26T05:53:40.065Z,94122.25
2023-03-26T05:56:08.372Z,94113.91
2023-03-26T05:58:36.587Z,94117.22
2023-03-26T06:01:08.495Z,94109.41
2023-03-26T06:03:38.122Z,94116.44
2023-03-26T06:06:09.986Z,94113.25
2023-03-26T06:08:37.707Z,94123.28
2023-03-26T06:11:08.038Z,94116.78
2023-03-26T06:13:35.785Z,94116.44
2023-03-26T06:16:03.486Z,94111.03
2023-03-26T06:18:31.418Z,94112.44
2023-03-26T06:21:00.218Z,94107.53
2023-03-26T06:23:29.416Z,94111.44
2023-03-26T06:25:57.185Z,94110.88
2023-03-26T06:28:24.851Z,94112.53
2023-03-26T06:30:53.369Z,94094.38
2023-03-26T06:33:23.472Z,94104.41
2023-03-26T06:35:52.249Z,94101.38
2023-03-26T06:38:20.005Z,94089.72
2023-03-26T06:40:49.084Z,94093.75
2023-03-26T06:43:16.810Z,94091.59
2023-03-26T06:45:44.764Z,94085.38
2023-03-26T06:48:12.442Z,94081.09
2023-03-26T06:50:40.100Z,94086.53
2023-03-26T06:53:07.712Z,94089.63
2023-03-26T06:55:35.423Z,94074.28
2023-03-26T06:58:04.430Z,94070.19
2023-03-26T07:00:32.119Z,94068.31
2023-03-26T07:02:59.776Z,94055.34
2023-03-26T07:05:27.471Z,94057.81
2023-03-26T07:07:55.093Z,94046.16
2023-03-26T07:10:22.820Z,94038.13
2023-03-26T07:12:50.472Z,94029.47
2023-03-26T07:15:19.728Z,94015.44
2023-03-26T07:17:47.450Z,94005.19
2023-03-26T07:20:15.394Z,93986.81
2023-03-26T07:22:43.736Z,93984.69
2023-03-26T07:25:15.550Z,93981.09
2023-03-26T07:27:48.229Z,93976.72
2023-03-26T07:30:16.989Z,93976.16
2023-03-26T07:32:51.200Z,93978.06
2023-03-26T07:35:22.084Z,93962.41
2023-03-26T07:37:59.293Z,93949.69
2023-03-26T07:40:41.708Z,93950.53
2023-03-26T07:43:15.654Z,93940.25
2023-03-26T07:45:44.831Z,93938.97
2023-03-26T07:48:18.158Z,93926.31
2023-03-26T07:50:46.605Z,93934.50
2023-03-26T07:53:15.243Z,93926.69
2023-03-26T07:55:48.405Z,93909.72
2023-03-26T07:58:27.124Z,93897.31
2023-03-26T08:00:58.285Z,93888.69
2023-03-26T08:03:42.916Z,93895.13
2023-03-26T08:06:14.656Z,93896.75
2023-03-26T08:08:49.323Z,93901.66
2023-03-26T08:11:28.612Z,93901.19
2023-03-26T08:14:03.378Z,93909.28
2023-03-26T08:16:36.456Z,93914.47
2023-03-26T08:19:11.946Z,93922.91
2023-03-26T08:21:44.039Z,93923.75
2023-03-26T08:24:19.576Z,93925.72
2023-03-26T08:26:51.454Z,93930.13
2023-03-26T08:29:21.868Z,93915.84
2023-03-26T08:31:50.375Z,93909.59
2023-03-26T08:34:19.421Z,93912.63
2023-03-26T08:36:47.592Z,93920.19
2023-03-26T08:39:15.323Z,93926.50
2023-03-26T08:42:24.836Z,93918.94
2023-03-26T08:45:42.926Z,93916.78
2023-03-26T08:48:37.062Z,93901.59
2023-03-26T08:51:31.119Z,93894.31
2023-03-26T08:54:50.629Z,93883.66
2023-03-26T08:57:33.938Z,93886.56
2023-03-26T09:00:21.800Z,93882.72
2023-03-26T09:03:18.763Z,93875.50
2023-03-26T09:05:59.304Z,93876.59
2023-03-26T09:08:54.382Z,93884.69
2023-03-26T09:11:40.250Z,93870.59
2023-03-26T09:14:47.969Z,93862.41
2023-03-26T09:17:25.572Z,93860.44
2023-03-26T09:20:26.538Z,93852.56
2023-03-26T09:23:16.189Z,93862.28
2023-03-26T09:26:02.703Z,93867.69
2023-03-26T09:29:12.159Z,93870.22
2023-03-26T09:32:02.401Z,93880.25
2023-03-26T09:34:31.750Z,93878.91
2023-03-26T09:37:15.559Z,93876.50
2023-03-26T09:39:51.243Z,93862.16
2023-03-26T09:42:25.638Z,93840.16
2023-03-26T09:45:18.618Z,93848.63
2023-03-26T09:48:34.500Z,93835.13
2023-03-26T09:51:30.174Z,93840.84
2023-03-26T09:54:07.156Z,93842.22
2023-03-26T09:56:42.071Z,93825.25
2023-03-26T09:59:26.510Z,93831.78
2023-03-26T10:01:59.117Z,93823.13
2023-03-26T10:04:59.550Z,93820.00
2023-03-26T10:07:50.402Z,93831.63
2023-03-26T10:10:27.229Z,93829.00
2023-03-26T10:13:11.621Z,93840.84
2023-03-26T10:15:57.210Z,93840.03
2023-03-26T10:18:32.785Z,93855.94
2023-03-26T10:21:04.563Z,93857.59
2023-03-26T10:23:49.926Z,93862.75
2023-03-26T10:26:32.341Z,93865.16
2023-03-26T10:29:06.152Z,93871.78
2023-03-26T10:31:40.893Z,93861.50
2023-03-26T10:34:28.708Z,93855.59
2023-03-26T10:36:59.748Z,93838.56
2023-03-26T10:39:39.417Z,93844.28
2023-03-26T10:42:20.774Z,93824.78
2023-03-26T10:45:00.902Z,93822.13
2023-03-26T10:47:39.341Z,93818.59
2023-03-26T10:50:24.823Z,93830.50
2023-03-26T10:52:55.810Z,93824.91
2023-03-26T10:55:28.401Z,93822.19
2023-03-26T10:57:57.606Z,93819.53
2023-03-26T11:00:27.273Z,93815.75
2023-03-26T11:03:18.919Z,93814.00
2023-03-26T11:05:50.328Z,93835.06
2023-03-26T11:08:31.833Z,93842.63
2023-03-26T11:11:02.230Z,93851.97
2023-03-26T11:13:40.997Z,93833.75
2023-03-26T11:16:15.582Z,93842.75
2023-03-26T11:18:47.731Z,93816.53
2023-03-26T11:21:20.680Z,93826.75
2023-03-26T11:24:05.090Z,93823.25
2023-03-26T11:26:39.602Z,93834.88
2023-03-26T11:29:32.271Z,93830.38
2023-03-26T11:32:05.683Z,93833.06
2023-03-26T11:34:38.409Z,93839.03
2023-03-26T11:37:08.072Z,93827.72
2023-03-26T11:39:44.232Z,93837.78
2023-03-26T11:42:14.962Z,93834.63
2023-03-26T11:44:46.694Z,93840.91
2023-03-26T11:47:17.470Z,93855.06
2023-03-26T11:49:47.474Z,93828.81
2023-03-26T11:52:15.798Z,93816.09
2023-03-26T11:54:48.190Z,93805.91
2023-03-26T11:57:19.693Z,93786.75
2023-03-26T11:59:57.181Z,93785.69
2023-03-26T12:02:32.354Z,93797.91
2023-03-26T12:05:20.858Z,93793.66
2023-03-26T12:07:53.642Z,93791.00
2023-03-26T12:10:28.039Z,93793.78
2023-03-26T12:12:57.994Z,93785.22
2023-03-26T12:15:26.667Z,93792.88
2023-03-26T12:17:58.685Z,93787.13
2023-03-26T12:20:38.590Z,93793.16
2023-03-26T12:23:08.223Z,93775.63
2023-03-26T12:25:37.385Z,93775.97
2023-03-26T12:28:06.640Z,93780.63
2023-03-26T12:30:37.070Z,93770.88
2023-03-26T12:33:07.063Z,93773.03
2023-03-26T12:35:37.057Z,93777.94
2023-03-26T12:38:23.692Z,93778.69
2023-03-26T12:41:05.201Z,93769.50
2023-03-26T12:44:53.291Z,93767.06
2023-03-26T12:47:57.602Z,93763.00
2023-03-26T12:49:14.972Z,93752.44
2023-03-26T12:51:49.454Z,93751.91
2023-03-26T12:54:28.840Z,93754.66
2023-03-26T12:57:12.337Z,93746.53
2023-03-26T13:00:00.181Z,93740.81
2023-03-26T13:02:50.245Z,93748.13
2023-03-26T13:05:31.765Z,93732.44
2023-03-26T13:08:15.240Z,93744.88
2023-03-26T13:10:51.570Z,93740.84
2023-03-26T13:13:32.360Z,93740.56
2023-03-26T13:16:02.022Z,93736.75
2023-03-26T13:18:44.096Z,93741.13
2023-03-26T13:21:14.119Z,93743.31
2023-03-26T13:23:47.753Z,93744.91
2023-03-26T13:26:26.399Z,93751.44
2023-03-26T13:28:58.461Z,93749.81
2023-03-26T13:31:29.391Z,93764.19
2023-03-26T13:34:01.562Z,93752.00
2023-03-26T13:36:36.099Z,93750.34
2023-03-26T13:39:14.486Z,93751.75
2023-03-26T13:41:53.381Z,93742.22
2023-03-26T13:44:27.599Z,93749.00
2023-03-26T13:46:58.627Z,93736.81
2023-03-26T13:49:33.552Z,93732.72
2023-03-26T13:52:04.432Z,93728.09
2023-03-26T13:54:35.857Z,93722.16
2023-03-26T13:57:06.716Z,93713.97
2023-03-26T13:59:39.490Z,93709.88
2023-03-26T14:02:14.978Z,93713.19
2023-03-26T14:04:46.402Z,93705.03
2023-03-26T14:07:20.956Z,93691.75
2023-03-26T14:09:53.004Z,93687.94
2023-03-26T14:12:48.823Z,93692.56
2023-03-26T14:15:19.490Z,93689.59
2023-03-26T14:17:51.153Z,93680.13
2023-03-26T14:20:30.128Z,93680.91
2023-03-26T14:23:17.412Z,93670.34
2023-03-26T14:25:58.659Z,93653.50
2023-03-26T14:28:49.484Z,93642.91
2023-03-26T14:31:23.625Z,93640.72
2023-03-26T14:34:04.763Z,93642.91
2023-03-26T14:37:07.336Z,93639.94
2023-03-26T14:39:55.417Z,93647.22
2023-03-26T14:42:29.591Z,93645.63
2023-03-26T14:45:09.873Z,93643.97
2023-03-26T14:47:42.347Z,93639.94
2023-03-26T14:50:31.549Z,93650.50
2023-03-26T14:53:01.908Z,93649.97
2023-03-26T14:55:50.853Z,93652.13
2023-03-26T14:58:35.354Z,93648.34
2023-03-26T15:01:22.777Z,93655.94
2023-03-26T15:04:19.560Z,93648.34
2023-03-26T15:07:22.996Z,93654.31
2023-03-26T15:10:12.812Z,93655.69
2023-03-26T15:12:53.033Z,93664.34
2023-03-26T15:15:55.236Z,93688.78
2023-03-26T15:18:50.407Z,93652.38
2023-03-26T15:21:53.473Z,93651.03
2023-03-26T15:24:56.350Z,93692.16
2023-03-26T15:27:51.972Z,93711.41
2023-03-26T15:30:57.891Z,93707.09
2023-03-26T15:34:04.371Z,93731.41
2023-03-26T15:36:56.391Z,93729.97
2023-03-26T15:40:14.935Z,93708.19
2023-03-26T15:42:52.855Z,93706.78
2023-03-26T15:45:35.323Z,93701.50
2023-03-26T15:48:51.678Z,93695.19
2023-03-26T15:51:47.397Z,93671.91
2023-03-26T15:54:23.805Z,93664.84
2023-03-26T15:57:00.433Z,93655.09
2023-03-26T15:59:38.351Z,93657.34
2023-03-26T16:02:16.211Z,93654.88
2023-03-26T16:04:50.610Z,93652.81
2023-03-26T16:07:38.328Z,93658.03
2023-03-26T16:10:22.121Z,93659.66
2023-03-26T16:12:56.791Z,93646.19
2023-03-26T16:15:29.366Z,93640.56
2023-03-26T16:18:33.954Z,93632.50
2023-03-26T16:21:37.808Z,93628.06
2023-03-26T16:24:28.799Z,93635.75
2023-03-26T16:27:07.824Z,93636.59
2023-03-26T16:29:36.382Z,93639.84
2023-03-26T16:32:16.554Z,93629.25
2023-03-26T16:34:50.609Z,93628.41
2023-03-26T16:37:40.882Z,93631.75
2023-03-26T16:40:29.602Z,93632.84
2023-03-26T16:43:05.110Z,93638.41
2023-03-26T16:45:37.106Z,93653.84
2023-03-26T16:48:11.476Z,93648.16
2023-03-26T16:50:44.753Z,93630.00
2023-03-26T16:53:24.789Z,93628.56
2023-03-26T16:55:58.272Z,93631.41
2023-03-26T16:58:31.550Z,93617.38
2023-03-26T17:01:08.656Z,93628.75
2023-03-26T17:03:55.095Z,93617.63
2023-03-26T17:06:31.614Z,93623.59
2023-03-26T17:09:04.303Z,93612.78
2023-03-26T17:11:40.882Z,93633.09
2023-03-26T17:14:17.787Z,93641.75
2023-03-26T17:16:49.171Z,93649.38
2023-03-26T17:19:28.088Z,93663.69
2023-03-26T17:21:57.607Z,93662.88
2023-03-26T17:24:30.909Z,93673.44
2023-03-26T17:27:04.852Z,93683.22
2023-03-26T17:29:44.842Z,93682.88
2023-03-26T17:32:15.210Z,93702.94
2023-03-26T17:34:53.988Z,93733.50
2023-03-26T17:37:46.486Z,93735.81
2023-03-26T17:40:48.950Z,93733.41
2023-03-26T17:43:40.406Z,93732.53
2023-03-26T17:46:19.833Z,93730.59
2023-03-26T17:48:49.301Z,93728.06
2023-03-26T17:51:33.523Z,93732.81
2023-03-26T17:54:01.482Z,93731.34
2023-03-26T17:56:32.114Z,93716.88
2023-03-26T17:59:11.843Z,93704.34
2023-03-26T18:01:42.285Z,93718.31
2023-03-26T18:04:15.623Z,93725.03
2023-03-26T18:06:54.723Z,93725.28
2023-03-26T18:09:33.329Z,93709.16
2023-03-26T18:12:30.117Z,93722.88
2023-03-26T18:15:11.233Z,93728.19
2023-03-26T18:17:44.739Z,93730.69
2023-03-26T18:20:21.427Z,93735.31
2023-03-26T18:22:49.726Z,93713.16
2023-03-26T18:25:23.836Z,93714.56
2023-03-26T18:27:51.549Z,93714.44
2023-03-26T18:30:22.582Z,93711.13
2023-03-26T18:33:00.797Z,93720.28
2023-03-26T18:35:40.718Z,93708.44
2023-03-26T18:38:13.986Z,93700.84
2023-03-26T18:40:42.931Z,93706.00
2023-03-26T18:43:28.613Z,93691.59
2023-03-26T18:46:04.676Z,93696.75
2023-03-26T18:48:32.405Z,93686.44
2023-03-26T18:51:05.799Z,93690.53
2023-03-26T18:53:37.283Z,93684.00
2023-03-26T18:56:20.477Z,93665.03
2023-03-26T18:58:52.013Z,93663.88
2023-03-26T19:01:25.859Z,93675.47
2023-03-26T19:03:54.645Z,93685.44
2023-03-26T19:06:23.446Z,93697.38
2023-03-26T19:08:52.308Z,93689.84
2023-03-26T19:11:20.192Z,93693.72
2023-03-26T19:13:59.262Z,93688.66
2023-03-26T19:16:33.631Z,93689.22
2023-03-26T19:19:02.204Z,93686.78
2023-03-26T19:21:29.877Z,93678.44
2023-03-26T19:23:57.614Z,93676.81
2023-03-26T19:26:25.323Z,93685.25
2023-03-26T19:28:54.431Z,93686.53
2023-03-26T19:31:25.821Z,93695.47
2023-03-26T19:33:58.959Z,93697.66
2023-03-26T19:36:30.354Z,93692.84
2023-03-26T19:39:10.672Z,93705.03
2023-03-26T19:41:40.992Z,93700.47
2023-03-26T19:44:19.296Z,93699.88
2023-03-26T19:46:53.246Z,93697.75
2023-03-26T19:49:32.023Z,93694.56
2023-03-26T19:52:14.835Z,93683.22
2023-03-26T19:54:59.951Z,93685.91
2023-03-26T19:57:30.056Z,93684.63
2023-03-26T19:59:58.400Z,93698.81
2023-03-26T20:02:26.652Z,93696.22
2023-03-26T20:04:55.846Z,93693.50
2023-03-26T20:07:35.557Z,93691.78
2023-03-26T20:10:05.599Z,93689.16
2023-03-26T20:12:33.575Z,93684.84
2023-03-26T20:15:01.826Z,93692.69
2023-03-26T20:17:30.879Z,93696.22
2023-03-26T20:20:00.055Z,93698.09
2023-03-26T20:22:27.747Z,93697.84
2023-03-26T20:24:55.389Z,93697.25
2023-03-26T20:27:23.158Z,93696.69
2023-03-26T20:29:50.786Z,93694.31
2023-03-26T20:32:20.137Z,93693.50
2023-03-26T20:34:49.605Z,93698.91
2023-03-26T20:37:18.685Z,93693.50
2023-03-26T20:39:46.888Z,93698.91
2023-03-26T20:42:16.025Z,93694.56
2023-03-26T20:44:44.118Z,93699.38
2023-03-26T20:47:12.643Z,93699.63
2023-03-26T20:49:41.085Z,93704.78
2023-03-26T20:52:08.779Z,93711.41
2023-03-26T20:54:37.766Z,93705.25
2023-03-26T20:57:05.413Z,93698.56
2023-03-26T20:59:33.126Z,93696.59
2023-03-26T21:02:01.284Z,93702.47
2023-03-26T21:04:28.994Z,93695.78
2023-03-26T21:07:07.261Z,93689.22
2023-03-26T21:09:45.020Z,93693.81
2023-03-26T21:12:29.499Z,93695.56
2023-03-26T21:14:57.643Z,93695.47
2023-03-26T21:17:26.177Z,93702.72
2023-03-26T21:19:54.697Z,93700.25
2023-03-26T21:22:31.662Z,93699.91
2023-03-26T21:25:18.154Z,93692.69
2023-03-26T21:27:58.253Z,93685.63
2023-03-26T21:30:26.511Z,93680.25
2023-03-26T21:32:54.500Z,93678.03
2023-03-26T21:35:22.975Z,93680.38
2023-03-26T21:37:51.180Z,93679.22
2023-03-26T21:40:21.061Z,93680.88
2023-03-26T21:42:50.675Z,93688.16
2023-03-26T21:45:19.368Z,93669.19
2023-03-26T21:47:47.502Z,93688.53
2023-03-26T21:50:17.535Z,93680.69
2023-03-26T21:52:48.252Z,93686.53
2023-03-26T21:55:17.733Z,93674.97
2023-03-26T21:58:07.290Z,93676.25
2023-03-26T22:00:43.461Z,93676.25
2023-03-26T22:03:16.564Z,93680.81
2023-03-26T22:05:49.358Z,93679.78
2023-03-26T22:08:23.217Z,93686.22
2023-03-26T22:10:51.179Z,93673.78
2023-03-26T22:13:20.126Z,93683.28
2023-03-26T22:15:47.832Z,93688.91
2023-03-26T22:18:15.462Z,93680.81
2023-03-26T22:20:43.336Z,93688.56
2023-03-26T22:23:11.925Z,93689.16
2023-03-26T22:25:40.047Z,93697.69
2023-03-26T22:28:07.624Z,93694.19
2023-03-26T22:30:36.660Z,93694.66
2023-03-26T22:33:04.455Z,93700.06
2023-03-26T22:35:32.156Z,93704.41
2023-03-26T22:38:00.844Z,93705.44
2023-03-26T22:40:29.021Z,93704.16
2023-03-26T22:42:56.640Z,93700.63
2023-03-26T22:45:24.485Z,93703.91
2023-03-26T22:47:53.621Z,93701.47
2023-03-26T22:50:31.973Z,93692.31
2023-03-26T22:52:59.597Z,93693.97
2023-03-26T22:55:28.216Z,93690.94
2023-03-26T22:57:56.909Z,93687.41
2023-03-26T23:00:26.336Z,93680.38
2023-03-26T23:03:00.230Z,93677.69
2023-03-26T23:05:28.460Z,93679.22
2023-03-26T23:07:57.136Z,93677.34
2023-03-26T23:10:24.772Z,93678.97
2023-03-26T23:12:53.146Z,93668.69
2023-03-26T23:15:20.839Z,93673.25
2023-03-26T23:17:54.228Z,93665.41
2023-03-26T23:20:24.042Z,93663.53
2023-03-26T23:22:52.402Z,93662.94
2023-03-26T23:25:20.225Z,93667.53
2023-03-26T23:27:48.362Z,93666.97
2023-03-26T23:30:16.667Z,93659.91
2023-03-26T23:32:44.407Z,93655.56
2023-03-26T23:35:12.157Z,93657.69
2023-03-26T23:37:42.522Z,93660.88
2023-03-26T23:40:12.485Z,93652.78
2023-03-26T23:42:40.121Z,93655.94
2023-03-26T23:45:09.223Z,93657.03
2023-03-26T23:47:37.380Z,93651.06
2023-03-26T23:50:06.232Z,93646.72
2023-03-26T23:52:33.855Z,93653.53
2023-03-26T23:55:02.888Z,93650.00
2023-03-26T23:57:30.993Z,93643.56
2023-03-26T23:59:58.989Z,93649.75
